^^
Station Historical Data
Daily Summary for January 3, 2018 Units:  English    Metric   Both
« Previous Day
Next Day »
Daily Weekly Monthly Yearly Custom
  High: Low: Average:
Temperature: TemperatureF °F 36.0 °F 46 °F
Dew Point: DewpointF °F 30.7 °F 43.3 °F
Humidity: Humidity% 71% 90%
Wind Speed: WindSpeedMPHmph 0.0mph 0mph
Wind Gust: WindSpeedGustMPHmph - -
Wind- - North
Pressure: PressureIn in 29.93 in -
Precipitation: 0.99 in    
Historical Graphs
 
 
Tabular Data for January 3, 2018
Time Temperature Dew Point Pressure Wind Wind Speed Wind Gust Humidity Rainfall Rate (Hourly) solar Conditions
TemperatureF °F DewpointF °F PressureIn in Calm     Humidity% HourlyPrecipIn in SolarRadiationWatts/m^2 W/m2 Conditions
00:00 48.0 °F 45.8 °F 30.16 in Calm     92% 0.00 in 0.0 W/m2 OVC
00:20 48.0 °F 45.8 °F 30.15 in Calm     92% 0.00 in 0.0 W/m2 -RA
00:25 48.0 °F 45.8 °F 30.15 in Calm     92% 0.00 in 0.0 W/m2 -RA
00:30 48.0 °F 45.8 °F 30.15 in Calm     92% 0.00 in 0.0 W/m2 -RA
00:40 48.0 °F 45.8 °F 30.15 in Calm     92% 0.00 in 0.0 W/m2 -RA
00:50 48.0 °F 45.8 °F 30.15 in Calm     92% 0.00 in 0.0 W/m2 -RA
00:55 48.0 °F 45.8 °F 30.15 in Calm     92% 0.00 in 0.0 W/m2 -RA
01:10 48.0 °F 46.9 °F 30.11 in Calm     96% 0.00 in 0.0 W/m2 RA
01:15 48.0 °F 46.9 °F 30.11 in Calm     96% 0.00 in 0.0 W/m2 OVC
01:25 48.0 °F 46.9 °F 30.11 in Calm     96% 0.00 in 0.0 W/m2 OVC
01:30 48.0 °F 46.9 °F 30.11 in Calm     96% 0.00 in 0.0 W/m2 OVC
01:40 48.0 °F 46.9 °F 30.10 in Calm     96% 0.00 in 0.0 W/m2 OVC
01:45 48.0 °F 46.9 °F 30.10 in Calm     96% 0.00 in 0.0 W/m2 OVC
01:55 48.0 °F 46.9 °F 30.10 in Calm     96% 0.00 in 0.0 W/m2 OVC
02:00 48.0 °F 46.9 °F 30.10 in Calm     96% 0.00 in 0.0 W/m2 OVC
02:25 48.0 °F 46.9 °F 30.09 in Calm     96% 0.00 in 0.0 W/m2 OVC
02:30 48.0 °F 46.9 °F 30.09 in Calm     96% 0.00 in 0.0 W/m2 OVC
02:40 48.0 °F 46.9 °F 30.09 in Calm     96% 0.00 in 0.0 W/m2 OVC
02:45 48.0 °F 46.9 °F 30.09 in Calm     96% 0.00 in 0.0 W/m2 OVC
02:55 48.0 °F 46.9 °F 30.09 in Calm     96% 0.00 in 0.0 W/m2 OVC
03:00 48.0 °F 46.9 °F 30.09 in Calm     96% 0.00 in 0.0 W/m2 OVC
03:05 48.9 °F 47.8 °F 30.06 in Calm     96% 0.02 in 0.0 W/m2 RA
03:10 48.9 °F 47.8 °F 30.06 in Calm     96% 0.02 in 0.0 W/m2 RA
03:15 48.9 °F 47.8 °F 30.06 in Calm     96% 0.00 in 0.0 W/m2 OVC
03:25 48.9 °F 47.8 °F 30.06 in Calm     96% 0.00 in 0.0 W/m2 OVC
03:45 48.9 °F 47.8 °F 30.06 in Calm     96% 0.00 in 0.0 W/m2 -RA
03:55 48.9 °F 47.8 °F 30.06 in Calm     96% 0.00 in 0.0 W/m2 -RA
04:10 48.0 °F 48.0 °F 30.03 in Calm     100% 0.00 in 0.0 W/m2 OVC
04:15 48.0 °F 48.0 °F 30.03 in Calm     100% 0.00 in 0.0 W/m2 OVC
04:30 48.0 °F 48.0 °F 30.03 in Calm     100% 0.00 in 0.0 W/m2 OVC
04:40 48.0 °F 48.0 °F 30.01 in Calm     100% 0.00 in 0.0 W/m2 OVC
04:45 48.0 °F 48.0 °F 30.01 in Calm     100% 0.00 in 0.0 W/m2 OVC
04:55 48.0 °F 48.0 °F 30.01 in Calm     100% 0.00 in 0.0 W/m2 OVC
05:15 48.9 °F 48.9 °F 30.00 in Calm     100% 0.00 in 0.0 W/m2 OVC
05:25 48.9 °F 48.9 °F 30.00 in Calm     100% 0.00 in 0.0 W/m2 OVC
05:30 48.9 °F 48.9 °F 30.00 in Calm     100% 0.00 in 0.0 W/m2 OVC
05:40 48.9 °F 48.9 °F 30.00 in Calm     100% 0.00 in 0.0 W/m2 +RA
05:45 48.9 °F 48.9 °F 30.00 in Calm     100% 0.00 in 0.0 W/m2 +RA
05:55 48.9 °F 48.9 °F 30.00 in Calm     100% 0.00 in 0.0 W/m2 OVC
06:00 48.9 °F 48.9 °F 30.00 in Calm     100% 0.00 in 0.0 W/m2 OVC
06:10 48.9 °F 48.9 °F 29.99 in Calm     100% 0.11 in 0.0 W/m2 +RA
06:25 50.0 °F 50.0 °F 29.99 in Calm     100% 0.00 in 0.0 W/m2 +RA
06:30 50.0 °F 50.0 °F 29.99 in Calm     100% 0.00 in 0.0 W/m2 +RA
06:40 50.0 °F 50.0 °F 29.98 in Calm     100% 0.00 in 0.0 W/m2 +RA
06:45 50.0 °F 50.0 °F 29.98 in Calm     100% 0.00 in 0.0 W/m2 +RA
06:55 50.0 °F 50.0 °F 29.98 in Calm     100% 0.00 in 0.0 W/m2 +RA
07:10 50.0 °F 50.0 °F 30.00 in Calm     100% 0.21 in 0.0 W/m2 +RA
07:15 50.0 °F 50.0 °F 30.00 in Calm     100% 0.00 in 0.0 W/m2 +RA
07:30 51.1 °F 51.1 °F 29.99 in Calm     100% 0.00 in 0.0 W/m2 OVC
07:40 51.1 °F 51.1 °F 29.99 in Calm     100% 0.00 in 0.0 W/m2 OVC
07:45 51.1 °F 51.1 °F 29.99 in Calm     100% 0.00 in 0.0 W/m2 OVC
07:50 51.1 °F 51.1 °F 29.98 in Calm     100% 0.00 in 0.0 W/m2 -RA
08:00 51.1 °F 51.1 °F 29.98 in Calm     100% 0.00 in 0.0 W/m2 -RA
08:10 51.1 °F 51.1 °F 29.98 in Calm     100% 0.00 in 0.0 W/m2 RA
08:15 51.1 °F 51.1 °F 29.98 in Calm     100% 0.00 in 0.0 W/m2 OVC
08:25 51.1 °F 51.1 °F 29.98 in Calm     100% 0.00 in 0.0 W/m2 OVC
08:30 51.1 °F 51.1 °F 29.98 in Calm     100% 0.00 in 0.0 W/m2 OVC
08:45 51.1 °F 51.1 °F 29.98 in Calm     100% 0.00 in 0.0 W/m2 OVC
08:55 52.0 °F 52.0 °F 29.96 in Calm     100% 0.00 in 0.0 W/m2 OVC
09:05 51.1 °F 51.1 °F 29.96 in Calm     100% 0.00 in 0.0 W/m2 -RA
09:10 51.1 °F 51.1 °F 29.96 in Calm     100% 0.11 in 0.0 W/m2 -RA
09:15 51.1 °F 51.1 °F 29.96 in Calm     100% 0.00 in 0.0 W/m2 -RA
09:25 51.1 °F 51.1 °F 29.96 in Calm     100% 0.00 in 0.0 W/m2 -RA
09:30 51.1 °F 51.1 °F 29.96 in Calm     100% 0.00 in 0.0 W/m2 -RA
09:40 51.1 °F 51.1 °F 29.96 in Calm     100% 0.00 in 0.0 W/m2 -RA
09:45 51.1 °F 51.1 °F 29.96 in Calm     100% 0.00 in 0.0 W/m2 -RA
09:55 51.1 °F 51.1 °F 29.96 in Calm     100% 0.00 in 0.0 W/m2 OVC
10:00 51.1 °F 51.1 °F 29.96 in Calm     100% 0.00 in 0.0 W/m2 OVC
10:10 48.0 °F 48.0 °F 30.02 in Calm     100% 0.00 in 0.0 W/m2 +RA
10:15 48.0 °F 48.0 °F 30.02 in Calm     100% 0.00 in 0.0 W/m2 +RA
10:25 44.1 °F 42.7 °F 30.06 in Calm     95% 0.00 in 0.0 W/m2 +RA
10:30 44.1 °F 42.7 °F 30.06 in Calm     95% 0.00 in 0.0 W/m2 +RA
10:40 41.0 °F 39.7 °F 30.07 in Calm     95% 0.00 in 0.0 W/m2 +RA
10:45 41.0 °F 39.7 °F 30.07 in Calm     95% 0.00 in 0.0 W/m2 +RA
11:00 41.0 °F 39.7 °F 30.07 in Calm     95% 0.00 in 0.0 W/m2 +RA
11:10 39.0 °F 37.7 °F 30.06 in Calm     95% 0.00 in 0.0 W/m2 -SN
11:25 39.0 °F 37.7 °F 30.06 in Calm     95% 0.00 in 0.0 W/m2 -SN
11:30 39.0 °F 37.7 °F 30.06 in Calm     95% 0.00 in 0.0 W/m2 -SN
11:40 39.0 °F 37.7 °F 30.06 in Calm     95% 0.00 in 0.0 W/m2 -SN
11:55 39.0 °F 37.7 °F 30.06 in Calm     95% 0.00 in 0.0 W/m2 OVC
12:00 39.0 °F 37.7 °F 30.06 in Calm     95% 0.00 in 0.0 W/m2 OVC
12:10 41.0 °F 41.0 °F 29.99 in Calm     100% 0.00 in 0.0 W/m2 -RA
12:15 41.0 °F 41.0 °F 29.99 in Calm     100% 0.00 in 0.0 W/m2 -RA
12:30 41.0 °F 41.0 °F 29.99 in Calm     100% 0.00 in 0.0 W/m2 -RA
12:40 41.0 °F 41.0 °F 29.99 in Calm     100% 0.00 in 0.0 W/m2 -RA
12:45 41.0 °F 41.0 °F 29.99 in Calm     100% 0.00 in 0.0 W/m2 -RA
12:55 44.1 °F 44.1 °F 30.00 in Calm     100% 0.00 in 0.0 W/m2 -RA
13:05 44.1 °F 44.1 °F 30.00 in Calm     100% 0.00 in 0.0 W/m2 RA
13:25 44.1 °F 44.1 °F 29.97 in Calm     100% 0.00 in 0.0 W/m2 OVC
13:30 44.1 °F 44.1 °F 29.97 in Calm     100% 0.00 in 0.0 W/m2 OVC
13:40 44.1 °F 44.1 °F 29.97 in Calm     100% 0.00 in 0.0 W/m2 OVC
13:45 44.1 °F 44.1 °F 29.97 in Calm     100% 0.00 in 0.0 W/m2 OVC
13:55 44.1 °F 44.1 °F 29.97 in Calm     100% 0.00 in 0.0 W/m2 OVC
14:00 44.1 °F 44.1 °F 29.97 in Calm     100% 0.00 in 0.0 W/m2 OVC
14:10 48.0 °F 44.9 °F 29.94 in Calm     89% 0.00 in 0.0 W/m2 RA
14:15 48.0 °F 44.9 °F 29.94 in Calm     89% 0.00 in 0.0 W/m2 BKN
14:30 48.0 °F 44.9 °F 29.94 in Calm     89% 0.00 in 0.0 W/m2 BKN
14:40 48.0 °F 44.9 °F 29.94 in Calm     89% 0.00 in 0.0 W/m2 BKN
14:45 48.0 °F 44.9 °F 29.94 in Calm     89% 0.00 in 0.0 W/m2 BKN
14:55 48.0 °F 44.9 °F 29.94 in Calm     89% 0.00 in 0.0 W/m2 BKN
15:00 48.0 °F 44.9 °F 29.94 in Calm     89% 0.00 in 0.0 W/m2 BKN
15:10 50.0 °F 43.7 °F 29.94 in Calm     79% 0.00 in 0.0 W/m2 OVC
15:25 50.0 °F 43.7 °F 29.94 in Calm     79% 0.00 in 0.0 W/m2 OVC
15:30 50.0 °F 43.7 °F 29.94 in Calm     79% 0.00 in 0.0 W/m2 OVC
15:40 50.0 °F 43.7 °F 29.94 in Calm     79% 0.00 in 0.0 W/m2 OVC
15:55 50.0 °F 42.7 °F 29.94 in Calm     76% 0.00 in 0.0 W/m2 OVC
16:00 50.0 °F 42.7 °F 29.94 in Calm     76% 0.00 in 0.0 W/m2 OVC
16:10 48.9 °F 42.0 °F 29.94 in Calm     77% 0.00 in 0.0 W/m2 BKN
16:15 48.9 °F 42.0 °F 29.94 in Calm     77% 0.00 in 0.0 W/m2 BKN
16:25 48.9 °F 42.0 °F 29.94 in Calm     77% 0.00 in 0.0 W/m2 BKN
16:45 48.9 °F 42.0 °F 29.94 in Calm     77% 0.00 in 0.0 W/m2 BKN
16:50 48.9 °F 42.0 °F 29.94 in Calm     77% 0.00 in 0.0 W/m2 BKN
17:00 48.9 °F 42.0 °F 29.94 in Calm     77% 0.00 in 0.0 W/m2 BKN
17:10 50.0 °F 41.0 °F 29.93 in Calm     71% 0.00 in 0.0 W/m2 FEW
17:20 50.0 °F 41.0 °F 29.93 in Calm     71% 0.00 in 0.0 W/m2 FEW
17:30 50.0 °F 41.0 °F 29.93 in Calm     71% 0.00 in 0.0 W/m2 FEW
17:40 50.0 °F 41.0 °F 29.93 in Calm     71% 0.00 in 0.0 W/m2 FEW
17:45 50.0 °F 41.0 °F 29.93 in Calm     71% 0.00 in 0.0 W/m2 FEW
18:10 46.9 °F 40.8 °F 29.95 in Calm     79% 0.00 in 0.0 W/m2 BKN
18:15 46.9 °F 40.8 °F 29.95 in Calm     79% 0.00 in 0.0 W/m2 BKN
18:25 46.9 °F 40.8 °F 29.95 in Calm     79% 0.00 in 0.0 W/m2 BKN
18:30 46.9 °F 40.8 °F 29.95 in Calm     79% 0.00 in 0.0 W/m2 BKN
18:40 46.9 °F 40.8 °F 29.95 in Calm     79% 0.00 in 0.0 W/m2 BKN
18:45 46.9 °F 40.8 °F 29.95 in Calm     79% 0.00 in 0.0 W/m2 BKN
19:10 45.0 °F 39.8 °F 29.98 in Calm     82% 0.00 in 0.0 W/m2 OVC
19:15 45.0 °F 39.8 °F 29.98 in Calm     82% 0.00 in 0.0 W/m2 OVC
19:30 45.0 °F 38.8 °F 29.99 in Calm     79% 0.00 in 0.0 W/m2 OVC
19:40 45.0 °F 38.8 °F 29.99 in Calm     79% 0.00 in 0.0 W/m2 OVC
19:45 45.0 °F 38.8 °F 29.99 in Calm     79% 0.00 in 0.0 W/m2 OVC
19:55 45.0 °F 38.8 °F 29.99 in Calm     79% 0.00 in 0.0 W/m2 OVC
20:00 45.0 °F 38.8 °F 29.99 in Calm     79% 0.00 in 0.0 W/m2 OVC
20:10 43.0 °F 36.9 °F 30.01 in Calm     79% 0.00 in 0.0 W/m2 BKN
20:30 43.0 °F 36.9 °F 30.01 in Calm     79% 0.00 in 0.0 W/m2 BKN
20:40 42.1 °F 35.7 °F 30.03 in Calm     78% 0.00 in 0.0 W/m2 BKN
20:45 42.1 °F 35.7 °F 30.03 in Calm     78% 0.00 in 0.0 W/m2 BKN
20:55 42.1 °F 35.7 °F 30.03 in Calm     78% 0.00 in 0.0 W/m2 BKN
21:00 42.1 °F 35.7 °F 30.03 in Calm     78% 0.00 in 0.0 W/m2 BKN
21:15 41.0 °F 35.0 °F 30.04 in Calm     79% 0.00 in 0.0 W/m2 OVC
21:25 41.0 °F 35.0 °F 30.04 in Calm     79% 0.00 in 0.0 W/m2 OVC
21:30 41.0 °F 35.0 °F 30.04 in Calm     79% 0.00 in 0.0 W/m2 OVC
21:40 41.0 °F 35.0 °F 30.04 in Calm     79% 0.00 in 0.0 W/m2 OVC
21:45 41.0 °F 35.0 °F 30.04 in Calm     79% 0.00 in 0.0 W/m2 OVC
21:55 41.0 °F 35.0 °F 30.04 in Calm     79% 0.00 in 0.0 W/m2 OVC
22:10 39.0 °F 33.1 °F 30.07 in Calm     79% 0.00 in 0.0 W/m2 OVC
22:15 39.0 °F 33.1 °F 30.07 in Calm     79% 0.00 in 0.0 W/m2 OVC
22:25 39.0 °F 33.1 °F 30.07 in Calm     79% 0.00 in 0.0 W/m2 OVC
22:30 39.0 °F 33.1 °F 30.07 in Calm     79% 0.00 in 0.0 W/m2 OVC
22:40 37.0 °F 30.8 °F 30.07 in Calm     78% 0.00 in 0.0 W/m2 SCT
22:45 37.0 °F 30.8 °F 30.07 in Calm     78% 0.00 in 0.0 W/m2 SCT
23:00 37.0 °F 30.8 °F 30.07 in Calm     78% 0.00 in 0.0 W/m2 SCT
23:15 36.0 °F 30.7 °F 30.08 in Calm     81% 0.00 in 0.0 W/m2 CLR
23:20 36.0 °F 30.7 °F 30.08 in Calm     81% 0.00 in 0.0 W/m2 CLR
23:40 36.0 °F 30.7 °F 30.08 in Calm     81% 0.00 in 0.0 W/m2 CLR
23:45 36.0 °F 30.7 °F 30.08 in Calm     81% 0.00 in 0.0 W/m2 CLR
23:55 36.0 °F 30.7 °F 30.08 in Calm     81% 0.00 in 0.0 W/m2 CLR
Lake Mary, FL, USA
Compliments of Weather Underground - 1.5 mb